Lake Elizabeth, California
Current Conditions -  °F | °C
As of 10:48 PM on Saturday 20 Dec 2014 (Local Time) from KSDB Reporting Station
Light Rain Light Rain  
Wind Chill: 37°   Ceiling: 100
Heat Index: 47°   Visibility: 0.25mi
Dew Point: 43°   Wind: 38mph
Humidity: 86%   Direction: 350°N
Pressure: 30.2"   Gusts: 48mph
Location:  34.6849°N, 118.558°W
Report Text: KSDB 210648Z AUTO 35033G42KT 1/4SM -RA FG VV001 08/06 A3020 RMK AO2 PK WND 34042/0646 SLP202 P0001 T00830061
Loading
Personal Weather Stations






























Interactive Weather Map New forecast layout! Learn more

10-Day Weather Forecast

Advertisements
Track Severe Weather on mobile